sensor_id;sensor_type;location;lat;lon;timestamp;pressure;altitude;pressure_sealevel;temperature;humidity
77881;BME280;67077;50.298;18.996;2023-07-29T00:02:00;97399.58;;;17.15;96.16
77881;BME280;67077;50.298;18.996;2023-07-29T00:04:27;97400.17;;;17.14;96.01
77881;BME280;67077;50.298;18.996;2023-07-29T00:06:54;97395.86;;;17.12;95.98
77881;BME280;67077;50.298;18.996;2023-07-29T00:09:45;97397.55;;;17.12;96.03
77881;BME280;67077;50.298;18.996;2023-07-29T00:13:08;97394.55;;;17.13;96.13
77881;BME280;67077;50.298;18.996;2023-07-29T00:16:49;97398.87;;;17.12;96.20
77881;BME280;67077;50.298;18.996;2023-07-29T00:20:34;97400.45;;;17.10;96.10
77881;BME280;67077;50.298;18.996;2023-07-29T00:23:23;97405.00;;;17.10;96.31
77881;BME280;67077;50.298;18.996;2023-07-29T00:25:55;97407.09;;;17.08;96.25
77881;BME280;67077;50.298;18.996;2023-07-29T00:28:24;97404.08;;;17.08;96.40
77881;BME280;67077;50.298;18.996;2023-07-29T00:30:51;97403.80;;;17.07;96.41
77881;BME280;67077;50.298;18.996;2023-07-29T00:33:18;97398.45;;;17.06;96.48
77881;BME280;67077;50.298;18.996;2023-07-29T00:35:47;97398.79;;;17.07;96.64
77881;BME280;67077;50.298;18.996;2023-07-29T00:38:14;97394.80;;;17.07;96.71
77881;BME280;67077;50.298;18.996;2023-07-29T00:40:42;97391.91;;;17.08;96.76
77881;BME280;67077;50.298;18.996;2023-07-29T00:43:09;97391.68;;;17.08;96.81
77881;BME280;67077;50.298;18.996;2023-07-29T00:45:37;97388.73;;;17.08;96.73
77881;BME280;67077;50.298;18.996;2023-07-29T00:48:05;97393.60;;;17.08;96.78
77881;BME280;67077;50.298;18.996;2023-07-29T00:50:32;97392.23;;;17.08;96.76
77881;BME280;67077;50.298;18.996;2023-07-29T00:52:59;97387.27;;;17.08;96.91
77881;BME280;67077;50.298;18.996;2023-07-29T00:55:27;97387.42;;;17.08;96.84
77881;BME280;67077;50.298;18.996;2023-07-29T00:57:55;97384.80;;;17.09;96.85
77881;BME280;67077;50.298;18.996;2023-07-29T01:00:22;97385.22;;;17.11;96.92
77881;BME280;67077;50.298;18.996;2023-07-29T01:02:49;97381.77;;;17.14;97.06
77881;BME280;67077;50.298;18.996;2023-07-29T01:05:17;97381.45;;;17.18;97.10
77881;BME280;67077;50.298;18.996;2023-07-29T01:07:59;97384.44;;;17.20;97.03
77881;BME280;67077;50.298;18.996;2023-07-29T01:11:15;97387.70;;;17.22;97.10
77881;BME280;67077;50.298;18.996;2023-07-29T01:16:47;97378.03;;;17.23;96.90
77881;BME280;67077;50.298;18.996;2023-07-29T01:22:16;97373.52;;;17.28;96.95
77881;BME280;67077;50.298;18.996;2023-07-29T01:24:44;97369.52;;;17.30;96.90
77881;BME280;67077;50.298;18.996;2023-07-29T01:27:11;97370.73;;;17.32;96.90
77881;BME280;67077;50.298;18.996;2023-07-29T01:29:39;97371.49;;;17.33;96.79
77881;BME280;67077;50.298;18.996;2023-07-29T01:32:46;97368.44;;;17.33;96.62
77881;BME280;67077;50.298;18.996;2023-07-29T01:38:54;97374.27;;;17.36;96.66
77881;BME280;67077;50.298;18.996;2023-07-29T01:42:08;97371.52;;;17.38;96.54
77881;BME280;67077;50.298;18.996;2023-07-29T01:44:49;97375.44;;;17.42;96.61
77881;BME280;67077;50.298;18.996;2023-07-29T01:48:02;97374.69;;;17.39;96.16
77881;BME280;67077;50.298;18.996;2023-07-29T01:50:57;97378.90;;;17.37;96.15
77881;BME280;67077;50.298;18.996;2023-07-29T01:53:28;97377.91;;;17.38;96.28
77881;BME280;67077;50.298;18.996;2023-07-29T01:55:57;97384.84;;;17.40;96.25
77881;BME280;67077;50.298;18.996;2023-07-29T01:58:25;97386.69;;;17.42;96.25
77881;BME280;67077;50.298;18.996;2023-07-29T02:00:53;97387.39;;;17.43;96.20
77881;BME280;67077;50.298;18.996;2023-07-29T02:03:27;97385.15;;;17.43;96.01
77881;BME280;67077;50.298;18.996;2023-07-29T02:06:01;97383.74;;;17.41;96.13
77881;BME280;67077;50.298;18.996;2023-07-29T02:08:40;97389.52;;;17.41;96.12
77881;BME280;67077;50.298;18.996;2023-07-29T02:11:11;97388.55;;;17.42;96.14
77881;BME280;67077;50.298;18.996;2023-07-29T02:13:47;97391.16;;;17.42;96.15
77881;BME280;67077;50.298;18.996;2023-07-29T02:16:30;97395.92;;;17.43;96.20
77881;BME280;67077;50.298;18.996;2023-07-29T02:19:19;97400.71;;;17.45;96.11
77881;BME280;67077;50.298;18.996;2023-07-29T02:22:23;97404.05;;;17.44;96.10
77881;BME280;67077;50.298;18.996;2023-07-29T02:25:18;97402.15;;;17.41;95.97
77881;BME280;67077;50.298;18.996;2023-07-29T02:28:49;97400.64;;;17.40;96.03
77881;BME280;67077;50.298;18.996;2023-07-29T02:32:38;97394.64;;;17.37;96.01
77881;BME280;67077;50.298;18.996;2023-07-29T02:35:20;97395.52;;;17.36;95.92
77881;BME280;67077;50.298;18.996;2023-07-29T02:38:54;97398.59;;;17.35;96.04
77881;BME280;67077;50.298;18.996;2023-07-29T02:41:54;97400.23;;;17.35;95.94
77881;BME280;67077;50.298;18.996;2023-07-29T02:44:39;97406.52;;;17.34;95.94
77881;BME280;67077;50.298;18.996;2023-07-29T02:47:25;97408.00;;;17.33;95.84
77881;BME280;67077;50.298;18.996;2023-07-29T02:50:26;97408.70;;;17.29;95.80
77881;BME280;67077;50.298;18.996;2023-07-29T02:53:19;97411.35;;;17.23;95.74
77881;BME280;67077;50.298;18.996;2023-07-29T02:56:09;97411.54;;;17.18;95.67
77881;BME280;67077;50.298;18.996;2023-07-29T02:58:51;97409.29;;;17.15;95.78
77881;BME280;67077;50.298;18.996;2023-07-29T03:01:37;97410.02;;;17.12;95.81
77881;BME280;67077;50.298;18.996;2023-07-29T03:04:06;97410.79;;;17.10;95.83
77881;BME280;67077;50.298;18.996;2023-07-29T03:06:36;97414.30;;;17.07;95.85
77881;BME280;67077;50.298;18.996;2023-07-29T03:09:04;97414.75;;;17.04;95.86
77881;BME280;67077;50.298;18.996;2023-07-29T03:11:32;97418.41;;;17.00;95.81
77881;BME280;67077;50.298;18.996;2023-07-29T03:14:00;97415.18;;;16.96;95.85
77881;BME280;67077;50.298;18.996;2023-07-29T03:16:29;97417.60;;;16.93;95.99
77881;BME280;67077;50.298;18.996;2023-07-29T03:18:58;97423.66;;;16.93;96.13
77881;BME280;67077;50.298;18.996;2023-07-29T03:21:32;97422.84;;;16.93;96.20
77881;BME280;67077;50.298;18.996;2023-07-29T03:24:04;97422.13;;;16.94;96.17
77881;BME280;67077;50.298;18.996;2023-07-29T03:26:35;97422.83;;;16.96;96.17
77881;BME280;67077;50.298;18.996;2023-07-29T03:29:07;97421.19;;;16.98;96.37
77881;BME280;67077;50.298;18.996;2023-07-29T03:31:39;97421.90;;;17.00;96.23
77881;BME280;67077;50.298;18.996;2023-07-29T03:34:18;97424.63;;;17.06;96.27
77881;BME280;67077;50.298;18.996;2023-07-29T03:36:57;97426.89;;;17.10;96.20
77881;BME280;67077;50.298;18.996;2023-07-29T03:39:37;97428.58;;;17.14;96.06
77881;BME280;67077;50.298;18.996;2023-07-29T03:42:51;97425.73;;;17.18;96.02
77881;BME280;67077;50.298;18.996;2023-07-29T03:45:45;97424.36;;;17.22;95.82
77881;BME280;67077;50.298;18.996;2023-07-29T03:49:22;97426.48;;;17.25;95.57
77881;BME280;67077;50.298;18.996;2023-07-29T03:52:50;97425.31;;;17.31;95.57
77881;BME280;67077;50.298;18.996;2023-07-29T03:56:14;97426.01;;;17.37;95.51
77881;BME280;67077;50.298;18.996;2023-07-29T03:59:29;97424.66;;;17.43;95.29
77881;BME280;67077;50.298;18.996;2023-07-29T04:02:43;97431.54;;;17.49;95.09
77881;BME280;67077;50.298;18.996;2023-07-29T04:06:09;97427.54;;;17.63;94.99
77881;BME280;67077;50.298;18.996;2023-07-29T04:09:02;97427.26;;;17.98;94.74
77881;BME280;67077;50.298;18.996;2023-07-29T04:11:37;97433.46;;;18.29;94.45
77881;BME280;67077;50.298;18.996;2023-07-29T04:14:06;97436.84;;;18.62;94.02
77881;BME280;67077;50.298;18.996;2023-07-29T04:16:33;97440.49;;;19.01;93.16
77881;BME280;67077;50.298;18.996;2023-07-29T04:19:01;97439.39;;;19.42;92.13
77881;BME280;67077;50.298;18.996;2023-07-29T04:21:28;97437.08;;;19.77;91.44
77881;BME280;67077;50.298;18.996;2023-07-29T04:23:56;97436.98;;;20.10;90.13
77881;BME280;67077;50.298;18.996;2023-07-29T04:26:24;97434.11;;;20.43;89.09
77881;BME280;67077;50.298;18.996;2023-07-29T04:28:51;97436.70;;;20.74;87.84
77881;BME280;67077;50.298;18.996;2023-07-29T04:31:18;97442.52;;;21.05;86.65
77881;BME280;67077;50.298;18.996;2023-07-29T04:33:44;97442.02;;;21.33;85.17
77881;BME280;67077;50.298;18.996;2023-07-29T04:36:11;97437.23;;;21.62;84.04
77881;BME280;67077;50.298;18.996;2023-07-29T04:38:38;97440.23;;;21.82;83.12
77881;BME280;67077;50.298;18.996;2023-07-29T04:41:05;97435.38;;;22.03;81.82
77881;BME280;67077;50.298;18.996;2023-07-29T04:43:33;97435.11;;;22.11;80.53
77881;BME280;67077;50.298;18.996;2023-07-29T04:46:00;97434.55;;;21.99;79.74
77881;BME280;67077;50.298;18.996;2023-07-29T04:48:26;97427.34;;;21.97;79.09
77881;BME280;67077;50.298;18.996;2023-07-29T04:50:53;97428.98;;;22.06;78.65
77881;BME280;67077;50.298;18.996;2023-07-29T04:53:20;97428.25;;;22.15;77.95
77881;BME280;67077;50.298;18.996;2023-07-29T04:55:47;97431.09;;;22.09;77.73
77881;BME280;67077;50.298;18.996;2023-07-29T04:58:14;97431.00;;;22.18;77.45
77881;BME280;67077;50.298;18.996;2023-07-29T05:00:41;97432.54;;;22.41;77.12
77881;BME280;67077;50.298;18.996;2023-07-29T05:03:08;97431.17;;;22.52;76.46
77881;BME280;67077;50.298;18.996;2023-07-29T05:05:35;97437.44;;;22.48;76.12
77881;BME280;67077;50.298;18.996;2023-07-29T05:08:02;97440.64;;;22.43;75.87
77881;BME280;67077;50.298;18.996;2023-07-29T05:10:28;97440.09;;;22.34;75.93
77881;BME280;67077;50.298;18.996;2023-07-29T05:12:55;97444.39;;;22.19;75.85
77881;BME280;67077;50.298;18.996;2023-07-29T05:15:22;97452.30;;;22.00;76.11
77881;BME280;67077;50.298;18.996;2023-07-29T05:17:49;97451.23;;;22.00;76.28
77881;BME280;67077;50.298;18.996;2023-07-29T05:20:17;97448.38;;;22.05;76.41
77881;BME280;67077;50.298;18.996;2023-07-29T05:22:43;97452.70;;;22.14;76.12
77881;BME280;67077;50.298;18.996;2023-07-29T05:25:10;97453.33;;;22.16;76.03
77881;BME280;67077;50.298;18.996;2023-07-29T05:27:36;97454.71;;;22.11;76.27
77881;BME280;67077;50.298;18.996;2023-07-29T05:30:03;97456.11;;;22.12;76.44
77881;BME280;67077;50.298;18.996;2023-07-29T05:32:30;97458.90;;;22.16;76.41
77881;BME280;67077;50.298;18.996;2023-07-29T05:34:57;97458.48;;;22.22;76.47
77881;BME280;67077;50.298;18.996;2023-07-29T05:37:25;97459.65;;;22.33;76.28
77881;BME280;67077;50.298;18.996;2023-07-29T05:39:51;97455.88;;;22.44;76.04
77881;BME280;67077;50.298;18.996;2023-07-29T05:42:18;97458.23;;;22.52;75.53
77881;BME280;67077;50.298;18.996;2023-07-29T05:44:45;97459.55;;;22.61;75.36
77881;BME280;67077;50.298;18.996;2023-07-29T05:47:11;97457.08;;;22.71;75.43
77881;BME280;67077;50.298;18.996;2023-07-29T05:49:38;97457.63;;;22.77;75.07
77881;BME280;67077;50.298;18.996;2023-07-29T05:52:05;97451.91;;;22.80;74.79
77881;BME280;67077;50.298;18.996;2023-07-29T05:54:32;97452.27;;;22.75;74.74
77881;BME280;67077;50.298;18.996;2023-07-29T05:56:59;97453.83;;;22.67;74.72
77881;BME280;67077;50.298;18.996;2023-07-29T05:59:26;97456.88;;;22.64;74.72
77881;BME280;67077;50.298;18.996;2023-07-29T06:01:56;97461.98;;;22.62;74.60
77881;BME280;67077;50.298;18.996;2023-07-29T06:04:23;97461.24;;;22.57;74.30
77881;BME280;67077;50.298;18.996;2023-07-29T06:06:49;97460.77;;;22.51;74.41
77881;BME280;67077;50.298;18.996;2023-07-29T06:09:16;97466.69;;;22.50;74.87
77881;BME280;67077;50.298;18.996;2023-07-29T06:11:43;97465.03;;;22.50;74.52
77881;BME280;67077;50.298;18.996;2023-07-29T06:14:10;97465.52;;;22.53;74.39
77881;BME280;67077;50.298;18.996;2023-07-29T06:16:36;97470.77;;;22.64;74.06
77881;BME280;67077;50.298;18.996;2023-07-29T06:19:03;97473.03;;;22.73;73.44
77881;BME280;67077;50.298;18.996;2023-07-29T06:21:30;97472.29;;;22.84;73.64
77881;BME280;67077;50.298;18.996;2023-07-29T06:23:57;97469.92;;;22.93;73.21
77881;BME280;67077;50.298;18.996;2023-07-29T06:26:24;97467.95;;;23.02;72.66
77881;BME280;67077;50.298;18.996;2023-07-29T06:28:50;97469.84;;;23.06;72.45
77881;BME280;67077;50.298;18.996;2023-07-29T06:31:17;97471.41;;;23.08;72.35
77881;BME280;67077;50.298;18.996;2023-07-29T06:33:44;97475.04;;;23.06;72.14
77881;BME280;67077;50.298;18.996;2023-07-29T06:36:12;97479.98;;;23.09;71.77
77881;BME280;67077;50.298;18.996;2023-07-29T06:38:38;97483.13;;;23.09;71.07
77881;BME280;67077;50.298;18.996;2023-07-29T06:41:05;97484.65;;;23.08;71.37
77881;BME280;67077;50.298;18.996;2023-07-29T06:43:32;97489.27;;;23.17;71.37
77881;BME280;67077;50.298;18.996;2023-07-29T06:45:58;97487.52;;;23.22;70.42
77881;BME280;67077;50.298;18.996;2023-07-29T06:48:25;97487.20;;;23.26;70.26
77881;BME280;67077;50.298;18.996;2023-07-29T06:50:52;97487.52;;;23.33;70.17
77881;BME280;67077;50.298;18.996;2023-07-29T06:53:19;97489.00;;;23.34;69.93
77881;BME280;67077;50.298;18.996;2023-07-29T06:55:46;97485.05;;;23.30;69.78
77881;BME280;67077;50.298;18.996;2023-07-29T06:58:13;97486.14;;;23.23;69.24
77881;BME280;67077;50.298;18.996;2023-07-29T07:00:41;97483.17;;;23.14;69.88
77881;BME280;67077;50.298;18.996;2023-07-29T07:03:07;97484.66;;;23.05;69.49
77881;BME280;67077;50.298;18.996;2023-07-29T07:05:37;97479.95;;;22.98;69.33
77881;BME280;67077;50.298;18.996;2023-07-29T07:08:04;97484.96;;;22.93;69.79
77881;BME280;67077;50.298;18.996;2023-07-29T07:10:30;97484.33;;;22.90;70.45
77881;BME280;67077;50.298;18.996;2023-07-29T07:12:57;97486.10;;;22.82;71.01
77881;BME280;67077;50.298;18.996;2023-07-29T07:15:25;97489.50;;;22.73;71.13
77881;BME280;67077;50.298;18.996;2023-07-29T07:17:53;97487.87;;;22.68;71.64
77881;BME280;67077;50.298;18.996;2023-07-29T07:20:23;97487.77;;;22.65;72.09
77881;BME280;67077;50.298;18.996;2023-07-29T07:22:50;97487.86;;;22.63;72.54
77881;BME280;67077;50.298;18.996;2023-07-29T07:25:17;97480.54;;;22.68;72.59
77881;BME280;67077;50.298;18.996;2023-07-29T07:27:44;97479.17;;;22.75;72.36
77881;BME280;67077;50.298;18.996;2023-07-29T07:30:11;97480.50;;;22.86;72.37
77881;BME280;67077;50.298;18.996;2023-07-29T07:32:38;97478.54;;;22.99;70.91
77881;BME280;67077;50.298;18.996;2023-07-29T07:35:07;97478.45;;;23.16;70.39
77881;BME280;67077;50.298;18.996;2023-07-29T07:37:34;97482.80;;;23.30;68.57
77881;BME280;67077;50.298;18.996;2023-07-29T07:40:01;97485.17;;;23.43;68.43
77881;BME280;67077;50.298;18.996;2023-07-29T07:42:28;97487.14;;;23.58;67.20
77881;BME280;67077;50.298;18.996;2023-07-29T07:44:55;97484.98;;;23.74;66.74
77881;BME280;67077;50.298;18.996;2023-07-29T07:47:22;97479.84;;;23.91;65.72
77881;BME280;67077;50.298;18.996;2023-07-29T07:49:49;97478.11;;;23.99;65.05
77881;BME280;67077;50.298;18.996;2023-07-29T07:52:17;97478.33;;;24.12;65.33
77881;BME280;67077;50.298;18.996;2023-07-29T07:54:44;97476.19;;;24.26;64.78
77881;BME280;67077;50.298;18.996;2023-07-29T07:57:10;97475.45;;;24.32;64.32
77881;BME280;67077;50.298;18.996;2023-07-29T07:59:37;97477.45;;;24.32;63.79
77881;BME280;67077;50.298;18.996;2023-07-29T08:02:03;97473.71;;;24.29;63.76
77881;BME280;67077;50.298;18.996;2023-07-29T08:04:30;97472.04;;;24.28;63.77
77881;BME280;67077;50.298;18.996;2023-07-29T08:06:57;97471.18;;;24.35;63.69
77881;BME280;67077;50.298;18.996;2023-07-29T08:09:25;97461.98;;;24.41;63.34
77881;BME280;67077;50.298;18.996;2023-07-29T08:11:51;97460.23;;;24.42;63.31
77881;BME280;67077;50.298;18.996;2023-07-29T08:14:18;97457.67;;;24.40;62.88
77881;BME280;67077;50.298;18.996;2023-07-29T08:16:46;97464.35;;;24.32;63.28
77881;BME280;67077;50.298;18.996;2023-07-29T08:19:13;97462.47;;;24.28;63.50
77881;BME280;67077;50.298;18.996;2023-07-29T08:21:41;97463.21;;;24.32;63.33
77881;BME280;67077;50.298;18.996;2023-07-29T08:24:07;97463.18;;;24.31;63.19
77881;BME280;67077;50.298;18.996;2023-07-29T08:26:34;97461.20;;;24.31;63.45
77881;BME280;67077;50.298;18.996;2023-07-29T08:29:01;97457.33;;;24.38;63.31
77881;BME280;67077;50.298;18.996;2023-07-29T08:31:29;97457.21;;;24.43;62.41
77881;BME280;67077;50.298;18.996;2023-07-29T08:33:58;97462.19;;;24.42;62.10
77881;BME280;67077;50.298;18.996;2023-07-29T08:36:35;97464.20;;;24.41;62.77
77881;BME280;67077;50.298;18.996;2023-07-29T08:43:17;97461.84;;;24.57;61.55
77881;BME280;67077;50.298;18.996;2023-07-29T08:45:45;97458.38;;;24.61;62.51
77881;BME280;67077;50.298;18.996;2023-07-29T08:48:12;97456.62;;;24.74;62.88
77881;BME280;67077;50.298;18.996;2023-07-29T08:50:44;97454.81;;;24.92;62.15
77881;BME280;67077;50.298;18.996;2023-07-29T08:53:10;97449.81;;;25.08;61.47
77881;BME280;67077;50.298;18.996;2023-07-29T08:55:40;97447.70;;;25.29;61.13
77881;BME280;67077;50.298;18.996;2023-07-29T08:58:06;97446.98;;;25.48;60.45
77881;BME280;67077;50.298;18.996;2023-07-29T09:00:34;97442.45;;;25.58;59.42
77881;BME280;67077;50.298;18.996;2023-07-29T09:03:01;97439.02;;;25.60;58.82
77881;BME280;67077;50.298;18.996;2023-07-29T09:05:33;97438.41;;;25.65;58.65
77881;BME280;67077;50.298;18.996;2023-07-29T09:08:02;97437.33;;;25.67;58.28
77881;BME280;67077;50.298;18.996;2023-07-29T09:10:29;97435.48;;;25.76;58.25
77881;BME280;67077;50.298;18.996;2023-07-29T09:12:56;97432.05;;;25.90;58.02
77881;BME280;67077;50.298;18.996;2023-07-29T09:15:28;97433.79;;;25.94;56.38
77881;BME280;67077;50.298;18.996;2023-07-29T09:17:57;97428.21;;;25.99;56.83
77881;BME280;67077;50.298;18.996;2023-07-29T09:20:27;97429.77;;;26.17;56.87
77881;BME280;67077;50.298;18.996;2023-07-29T09:22:55;97427.00;;;26.35;55.75
77881;BME280;67077;50.298;18.996;2023-07-29T09:25:26;97424.98;;;26.57;55.99
77881;BME280;67077;50.298;18.996;2023-07-29T09:27:58;97423.25;;;26.79;55.13
77881;BME280;67077;50.298;18.996;2023-07-29T09:30:26;97420.21;;;26.91;53.58
77881;BME280;67077;50.298;18.996;2023-07-29T09:32:58;97415.31;;;26.96;53.60
77881;BME280;67077;50.298;18.996;2023-07-29T09:35:30;97415.99;;;27.14;53.43
77881;BME280;67077;50.298;18.996;2023-07-29T09:37:58;97419.94;;;27.30;51.15
77881;BME280;67077;50.298;18.996;2023-07-29T09:40:25;97415.65;;;27.37;49.63
77881;BME280;67077;50.298;18.996;2023-07-29T09:42:54;97409.70;;;27.42;49.13
77881;BME280;67077;50.298;18.996;2023-07-29T09:45:26;97410.64;;;27.51;50.68
77881;BME280;67077;50.298;18.996;2023-07-29T09:47:54;97407.95;;;27.70;50.95
77881;BME280;67077;50.298;18.996;2023-07-29T09:50:24;97409.95;;;27.72;49.37
77881;BME280;67077;50.298;18.996;2023-07-29T09:52:53;97403.94;;;27.61;48.97
77881;BME280;67077;50.298;18.996;2023-07-29T09:55:23;97403.68;;;27.66;50.00
77881;BME280;67077;50.298;18.996;2023-07-29T09:58:08;97399.88;;;27.63;50.08
77881;BME280;67077;50.298;18.996;2023-07-29T10:00:35;97403.85;;;27.49;50.74
77881;BME280;67077;50.298;18.996;2023-07-29T10:03:02;97399.27;;;27.43;50.80
77881;BME280;67077;50.298;18.996;2023-07-29T10:05:29;97390.79;;;27.36;50.35
77881;BME280;67077;50.298;18.996;2023-07-29T10:07:57;97385.61;;;27.35;50.15
77881;BME280;67077;50.298;18.996;2023-07-29T10:10:23;97384.70;;;27.28;49.92
77881;BME280;67077;50.298;18.996;2023-07-29T10:12:50;97385.38;;;27.16;50.09
77881;BME280;67077;50.298;18.996;2023-07-29T10:15:17;97386.86;;;27.06;50.59
77881;BME280;67077;50.298;18.996;2023-07-29T10:17:45;97388.60;;;27.00;50.79
77881;BME280;67077;50.298;18.996;2023-07-29T10:20:12;97386.89;;;26.99;51.28
77881;BME280;67077;50.298;18.996;2023-07-29T10:22:40;97381.98;;;27.03;51.08
77881;BME280;67077;50.298;18.996;2023-07-29T10:25:10;97375.73;;;27.10;50.72
77881;BME280;67077;50.298;18.996;2023-07-29T10:28:04;97373.75;;;27.22;50.46
77881;BME280;67077;50.298;18.996;2023-07-29T10:30:31;97377.20;;;27.27;50.32
77881;BME280;67077;50.298;18.996;2023-07-29T10:33:01;97376.23;;;27.32;50.14
77881;BME280;67077;50.298;18.996;2023-07-29T10:35:29;97370.62;;;27.37;49.46
77881;BME280;67077;50.298;18.996;2023-07-29T10:37:56;97370.48;;;27.38;48.80
77881;BME280;67077;50.298;18.996;2023-07-29T10:40:23;97377.84;;;27.32;49.14
77881;BME280;67077;50.298;18.996;2023-07-29T10:45:39;97372.52;;;27.37;49.14
77881;BME280;67077;50.298;18.996;2023-07-29T10:48:13;97379.04;;;27.38;49.61
77881;BME280;67077;50.298;18.996;2023-07-29T10:50:40;97380.96;;;27.36;49.50
77881;BME280;67077;50.298;18.996;2023-07-29T10:53:06;97376.32;;;27.29;49.60
77881;BME280;67077;50.298;18.996;2023-07-29T10:55:34;97371.61;;;27.28;49.02
77881;BME280;67077;50.298;18.996;2023-07-29T10:58:14;97374.13;;;27.24;49.60
77881;BME280;67077;50.298;18.996;2023-07-29T11:00:42;97371.39;;;27.23;49.78
77881;BME280;67077;50.298;18.996;2023-07-29T11:03:12;97371.17;;;27.25;49.52
77881;BME280;67077;50.298;18.996;2023-07-29T11:05:49;97375.16;;;27.28;49.56
77881;BME280;67077;50.298;18.996;2023-07-29T11:08:25;97373.75;;;27.28;49.68
77881;BME280;67077;50.298;18.996;2023-07-29T11:13:29;97363.40;;;27.44;49.40
77881;BME280;67077;50.298;18.996;2023-07-29T11:15:56;97355.64;;;27.50;49.27
77881;BME280;67077;50.298;18.996;2023-07-29T11:18:30;97356.79;;;27.56;49.38
77881;BME280;67077;50.298;18.996;2023-07-29T11:20:57;97355.45;;;27.65;49.20
77881;BME280;67077;50.298;18.996;2023-07-29T11:23:32;97355.42;;;27.79;48.52
77881;BME280;67077;50.298;18.996;2023-07-29T11:26:00;97358.33;;;27.88;48.16
77881;BME280;67077;50.298;18.996;2023-07-29T11:28:28;97349.23;;;27.79;46.94
77881;BME280;67077;50.298;18.996;2023-07-29T11:30:56;97347.45;;;27.75;47.05
77881;BME280;67077;50.298;18.996;2023-07-29T11:33:25;97346.48;;;27.83;47.65
77881;BME280;67077;50.298;18.996;2023-07-29T11:35:52;97338.02;;;27.86;47.47
77881;BME280;67077;50.298;18.996;2023-07-29T11:38:20;97336.04;;;27.76;47.53
77881;BME280;67077;50.298;18.996;2023-07-29T11:41:00;97338.57;;;27.71;48.24
77881;BME280;67077;50.298;18.996;2023-07-29T11:43:29;97336.34;;;27.75;48.13
77881;BME280;67077;50.298;18.996;2023-07-29T11:45:56;97334.01;;;27.77;47.82
77881;BME280;67077;50.298;18.996;2023-07-29T11:48:31;97335.95;;;27.66;47.47
77881;BME280;67077;50.298;18.996;2023-07-29T11:50:58;97331.59;;;27.55;47.59
77881;BME280;67077;50.298;18.996;2023-07-29T11:53:29;97324.86;;;27.52;47.92
77881;BME280;67077;50.298;18.996;2023-07-29T11:55:59;97328.77;;;27.53;48.58
77881;BME280;67077;50.298;18.996;2023-07-29T11:58:26;97328.20;;;27.50;48.53
77881;BME280;67077;50.298;18.996;2023-07-29T12:00:52;97329.61;;;27.52;48.62
77881;BME280;67077;50.298;18.996;2023-07-29T12:03:19;97321.89;;;27.51;47.18
77881;BME280;67077;50.298;18.996;2023-07-29T12:05:46;97323.77;;;27.53;47.87
77881;BME280;67077;50.298;18.996;2023-07-29T12:08:13;97324.58;;;27.58;48.23
77881;BME280;67077;50.298;18.996;2023-07-29T12:10:41;97324.51;;;27.61;47.69
77881;BME280;67077;50.298;18.996;2023-07-29T12:13:07;97323.27;;;27.66;47.90
77881;BME280;67077;50.298;18.996;2023-07-29T12:15:34;97320.80;;;27.65;48.02
77881;BME280;67077;50.298;18.996;2023-07-29T12:18:01;97318.27;;;27.59;47.50
77881;BME280;67077;50.298;18.996;2023-07-29T12:20:29;97316.02;;;27.58;48.07
77881;BME280;67077;50.298;18.996;2023-07-29T12:22:57;97310.84;;;27.63;48.12
77881;BME280;67077;50.298;18.996;2023-07-29T12:25:25;97304.94;;;27.66;48.52
77881;BME280;67077;50.298;18.996;2023-07-29T12:27:52;97300.56;;;27.63;48.06
77881;BME280;67077;50.298;18.996;2023-07-29T12:30:22;97302.14;;;27.56;48.69
77881;BME280;67077;50.298;18.996;2023-07-29T12:32:49;97304.96;;;27.59;48.79
77881;BME280;67077;50.298;18.996;2023-07-29T12:35:16;97302.95;;;27.62;48.89
77881;BME280;67077;50.298;18.996;2023-07-29T12:37:42;97299.41;;;27.55;48.25
77881;BME280;67077;50.298;18.996;2023-07-29T12:40:29;97295.64;;;27.59;48.07
77881;BME280;67077;50.298;18.996;2023-07-29T12:42:56;97290.13;;;27.67;48.24
77881;BME280;67077;50.298;18.996;2023-07-29T12:45:23;97290.45;;;27.74;48.18
77881;BME280;67077;50.298;18.996;2023-07-29T12:47:53;97289.60;;;27.80;47.85
77881;BME280;67077;50.298;18.996;2023-07-29T12:50:20;97285.30;;;27.83;47.98
77881;BME280;67077;50.298;18.996;2023-07-29T12:52:47;97281.02;;;27.83;47.25
77881;BME280;67077;50.298;18.996;2023-07-29T12:55:14;97279.48;;;27.79;47.28
77881;BME280;67077;50.298;18.996;2023-07-29T12:57:41;97280.55;;;27.75;47.77
77881;BME280;67077;50.298;18.996;2023-07-29T13:00:09;97279.85;;;27.71;47.37
77881;BME280;67077;50.298;18.996;2023-07-29T13:02:36;97282.57;;;27.63;48.09
77881;BME280;67077;50.298;18.996;2023-07-29T13:05:03;97276.61;;;27.56;47.64
77881;BME280;67077;50.298;18.996;2023-07-29T13:07:30;97277.34;;;27.49;48.05
77881;BME280;67077;50.298;18.996;2023-07-29T13:09:56;97285.40;;;27.43;47.89
77881;BME280;67077;50.298;18.996;2023-07-29T13:12:23;97288.20;;;27.44;48.41
77881;BME280;67077;50.298;18.996;2023-07-29T13:14:49;97280.53;;;27.47;48.16
77881;BME280;67077;50.298;18.996;2023-07-29T13:17:16;97286.45;;;27.56;48.18
77881;BME280;67077;50.298;18.996;2023-07-29T13:19:42;97285.60;;;27.64;47.51
77881;BME280;67077;50.298;18.996;2023-07-29T13:22:08;97283.18;;;27.70;47.80
77881;BME280;67077;50.298;18.996;2023-07-29T13:24:35;97281.56;;;27.80;47.38
77881;BME280;67077;50.298;18.996;2023-07-29T13:27:01;97279.86;;;27.86;46.52
77881;BME280;67077;50.298;18.996;2023-07-29T13:29:30;97280.73;;;27.91;46.25
77881;BME280;67077;50.298;18.996;2023-07-29T13:31:56;97272.20;;;27.96;46.28
77881;BME280;67077;50.298;18.996;2023-07-29T13:34:23;97267.73;;;28.01;46.55
77881;BME280;67077;50.298;18.996;2023-07-29T13:36:49;97267.38;;;27.99;46.61
77881;BME280;67077;50.298;18.996;2023-07-29T13:39:15;97266.08;;;27.95;46.26